Time;durP1;ratioP1;P1;durP2;ratioP2;P2;SDS_P1;SDS_P2;PMS_P1;PMS_P2;Temp;Humidity;BMP_temperature;BMP_pressure;BME280_temperature;BME280_humidity;BME280_pressure;Samples;Min_cycle;Max_cycle;Signal;HPM_P1;HPM_P2
2023/10/17 00:01:17;;;;;;;7.13;6.50;;;11.00;92.90;;;;;;5074926;28;20465;-56
2023/10/17 00:03:45;;;;;;;6.77;5.30;;;10.90;92.80;;;;;;5074895;28;20811;-56
2023/10/17 00:06:16;;;;;;;7.77;6.20;;;10.90;92.70;;;;;;5074824;28;20471;-56
2023/10/17 00:08:43;;;;;;;7.03;6.30;;;10.90;92.70;;;;;;5074635;28;20433;-56
2023/10/17 00:11:21;;;;;;;8.43;7.43;;;10.90;92.80;;;;;;5074740;28;20468;-56
2023/10/17 00:14:02;;;;;;;7.50;5.80;;;10.90;92.80;;;;;;5074673;28;20563;-56
2023/10/17 00:16:31;;;;;;;7.70;6.50;;;10.80;92.60;;;;;;5074503;28;20440;-57
2023/10/17 00:19:04;;;;;;;7.73;6.13;;;10.80;92.50;;;;;;5074286;28;21012;-56
2023/10/17 00:21:33;;;;;;;11.47;6.37;;;10.80;92.50;;;;;;5074505;28;20465;-56
2023/10/17 00:24:03;;;;;;;6.53;5.63;;;10.70;92.30;;;;;;5074484;28;20447;-56
2023/10/17 00:26:31;;;;;;;7.70;6.13;;;10.70;92.20;;;;;;5074477;28;20458;-56
2023/10/17 00:28:58;;;;;;;7.17;6.47;;;10.60;92.20;;;;;;5074432;28;20483;-56
2023/10/17 00:31:24;;;;;;;7.73;6.67;;;10.60;92.20;;;;;;5074246;28;20464;-56
2023/10/17 00:33:57;;;;;;;6.73;6.07;;;10.60;92.20;;;;;;5074434;28;20484;-56
2023/10/17 00:36:24;;;;;;;7.00;5.10;;;10.60;92.20;;;;;;5074614;28;20448;-59
2023/10/17 00:38:53;;;;;;;8.13;6.10;;;10.60;92.20;;;;;;5074510;28;20445;-56
2023/10/17 00:41:29;;;;;;;8.97;6.17;;;10.50;92.10;;;;;;5074154;28;20475;-56
2023/10/17 00:43:57;;;;;;;7.30;6.60;;;10.50;92.10;;;;;;5074174;28;20421;-56
2023/10/17 00:46:24;;;;;;;9.10;6.30;;;10.40;92.00;;;;;;5074103;28;20549;-56
2023/10/17 00:48:51;;;;;;;7.33;5.60;;;10.40;92.00;;;;;;5074090;28;20822;-56
2023/10/17 00:51:21;;;;;;;6.77;5.70;;;10.40;92.10;;;;;;5073966;28;20464;-56
2023/10/17 00:53:48;;;;;;;6.90;6.30;;;10.30;92.10;;;;;;5074255;28;20473;-56
2023/10/17 00:56:16;;;;;;;9.00;6.30;;;10.30;92.00;;;;;;5073892;28;20498;-56
2023/10/17 00:58:43;;;;;;;7.90;6.23;;;10.30;92.00;;;;;;5073601;28;20448;-57
2023/10/17 01:01:16;;;;;;;6.83;6.20;;;10.30;92.00;;;;;;5073903;28;20471;-56
2023/10/17 01:03:45;;;;;;;6.73;5.10;;;10.20;92.10;;;;;;5073853;28;20421;-56
2023/10/17 01:06:23;;;;;;;7.00;5.40;;;10.20;92.10;;;;;;5073707;28;20546;-56
2023/10/17 01:08:50;;;;;;;6.80;5.20;;;10.20;92.20;;;;;;5073668;28;20464;-56
2023/10/17 01:11:26;;;;;;;6.57;5.97;;;10.20;92.30;;;;;;5073698;28;20465;-56
2023/10/17 01:13:53;;;;;;;6.37;5.17;;;10.20;92.40;;;;;;5073264;28;20986;-56
2023/10/17 01:16:21;;;;;;;5.83;5.33;;;10.20;92.50;;;;;;5073592;28;20452;-56
2023/10/17 01:18:48;;;;;;;6.87;6.00;;;10.20;92.70;;;;;;5073565;28;20488;-56
2023/10/17 01:21:18;;;;;;;7.47;5.80;;;10.10;92.80;;;;;;5073455;28;20496;-56
2023/10/17 01:23:45;;;;;;;6.83;6.10;;;10.20;93.20;;;;;;5073501;28;20472;-56
2023/10/17 01:26:14;;;;;;;6.20;5.70;;;10.10;92.90;;;;;;5073513;28;20450;-56
2023/10/17 01:28:45;;;;;;;6.80;5.80;;;10.20;93.10;;;;;;5073489;28;20444;-56
2023/10/17 01:31:14;;;;;;;6.93;6.23;;;10.20;93.20;;;;;;5073407;28;20461;-56
2023/10/17 01:33:43;;;;;;;6.60;6.00;;;10.20;93.40;;;;;;5073020;28;21001;-56
2023/10/17 01:36:10;;;;;;;7.43;6.00;;;10.20;93.50;;;;;;5073045;28;20445;-56
2023/10/17 01:38:42;;;;;;;7.80;5.87;;;10.20;93.60;;;;;;5072977;28;20479;-56
2023/10/17 01:41:09;;;;;;;5.47;4.97;;;10.20;93.70;;;;;;5073233;28;20498;-56
2023/10/17 01:43:40;;;;;;;8.63;6.00;;;10.20;93.80;;;;;;5073624;28;20849;-56
2023/10/17 01:46:08;;;;;;;5.93;5.33;;;10.20;93.90;;;;;;5072963;28;20907;-56
2023/10/17 01:48:36;;;;;;;8.40;6.23;;;10.20;94.00;;;;;;5073208;28;20448;-56
2023/10/17 01:51:06;;;;;;;7.50;6.80;;;10.20;94.10;;;;;;5073078;28;20461;-56
2023/10/17 01:53:33;;;;;;;9.50;6.40;;;10.20;94.00;;;;;;5073136;28;20476;-56
2023/10/17 01:56:06;;;;;;;6.97;5.70;;;10.20;94.00;;;;;;5073203;28;20445;-56
2023/10/17 01:58:36;;;;;;;12.40;5.50;;;10.20;94.00;;;;;;5073187;28;20428;-56
2023/10/17 02:01:10;;;;;;;8.63;5.43;;;10.20;94.00;;;;;;5073064;28;20642;-56
2023/10/17 02:03:37;;;;;;;5.07;4.37;;;10.20;94.00;;;;;;5073067;28;20425;-56
2023/10/17 02:06:13;;;;;;;7.27;6.07;;;10.20;94.00;;;;;;5073030;28;20452;-56
2023/10/17 02:08:40;;;;;;;5.53;5.00;;;10.20;94.00;;;;;;5072866;28;20427;-56
2023/10/17 02:11:12;;;;;;;6.90;5.20;;;10.20;94.00;;;;;;5072963;28;20465;-56
2023/10/17 02:13:40;;;;;;;7.73;6.00;;;10.20;94.00;;;;;;5072983;28;20468;-56
2023/10/17 02:16:09;;;;;;;8.57;4.63;;;10.20;93.80;;;;;;5072652;28;20946;-56
2023/10/17 02:18:36;;;;;;;7.03;5.47;;;10.20;93.70;;;;;;5072849;28;20451;-56
2023/10/17 02:21:05;;;;;;;6.10;5.13;;;10.20;93.70;;;;;;5073538;28;20530;-56
2023/10/17 02:23:39;;;;;;;7.67;5.27;;;10.20;93.60;;;;;;5072849;28;20559;-56
2023/10/17 02:26:10;;;;;;;5.90;5.30;;;10.20;93.60;;;;;;5072898;28;20508;-56
2023/10/17 02:28:44;;;;;;;7.17;5.50;;;10.20;93.70;;;;;;5072544;28;20848;-56
2023/10/17 02:31:13;;;;;;;7.90;5.80;;;10.10;93.70;;;;;;5072850;28;20814;-56
2023/10/17 02:33:42;;;;;;;6.27;5.33;;;10.20;93.80;;;;;;5072644;28;20476;-56
2023/10/17 02:36:12;;;;;;;5.97;5.30;;;10.10;93.90;;;;;;5072748;28;20495;-56
2023/10/17 02:38:39;;;;;;;5.97;5.13;;;10.10;93.90;;;;;;5072420;28;20988;-56
2023/10/17 02:41:08;;;;;;;7.40;5.37;;;10.10;93.90;;;;;;5072482;28;20552;-56
2023/10/17 02:43:37;;;;;;;6.23;5.33;;;10.10;94.10;;;;;;5072610;28;20487;-56
2023/10/17 02:46:05;;;;;;;6.10;4.87;;;10.10;94.00;;;;;;5072655;28;20540;-56
2023/10/17 02:48:38;;;;;;;5.20;4.70;;;10.10;94.00;;;;;;5072626;28;20444;-56
2023/10/17 02:51:11;;;;;;;6.13;5.23;;;10.10;94.10;;;;;;5072584;28;20560;-56
2023/10/17 02:53:43;;;;;;;8.77;5.20;;;10.10;94.10;;;;;;5072815;28;20464;-56
2023/10/17 02:56:19;;;;;;;5.50;5.00;;;10.10;94.20;;;;;;5076768;28;20421;-56
2023/10/17 02:58:48;;;;;;;5.60;5.10;;;10.10;94.20;;;;;;5076111;28;20432;-56
2023/10/17 03:01:15;;;;;;;5.80;5.30;;;10.10;94.20;;;;;;5075909;28;20507;-56
2023/10/17 03:03:43;;;;;;;6.20;4.90;;;10.10;94.20;;;;;;5075730;28;20895;-56
2023/10/17 03:06:15;;;;;;;7.20;5.20;;;10.20;94.30;;;;;;5075987;28;20448;-56
2023/10/17 03:08:49;;;;;;;7.40;5.17;;;10.10;94.20;;;;;;5075863;28;20433;-56
2023/10/17 03:11:17;;;;;;;5.87;5.00;;;10.10;94.20;;;;;;5075792;28;20461;-56
2023/10/17 03:13:45;;;;;;;5.70;4.90;;;10.10;94.20;;;;;;5075760;28;20897;-56
2023/10/17 03:16:17;;;;;;;5.50;4.90;;;10.10;94.10;;;;;;5075834;28;20524;-56
2023/10/17 03:18:50;;;;;;;6.03;5.43;;;10.10;94.10;;;;;;5075797;28;20425;-56
2023/10/17 03:21:18;;;;;;;7.17;5.87;;;10.10;94.20;;;;;;5075789;28;20564;-56
2023/10/17 03:23:49;;;;;;;5.97;5.10;;;10.10;94.20;;;;;;5075661;28;20449;-56
2023/10/17 03:26:18;;;;;;;9.20;6.27;;;10.10;94.20;;;;;;5076219;28;20433;-56
2023/10/17 03:28:45;;;;;;;8.23;5.80;;;10.10;94.20;;;;;;5075672;28;20444;-56
2023/10/17 03:31:20;;;;;;;6.63;6.00;;;10.10;94.10;;;;;;5075543;28;20480;-56
2023/10/17 03:33:50;;;;;;;5.60;5.10;;;10.10;94.10;;;;;;5075449;28;20468;-56
2023/10/17 03:39:17;;;;;;;6.13;5.53;;;10.10;94.00;;;;;;5075121;28;20433;-56
2023/10/17 03:41:45;;;;;;;4.97;4.50;;;10.10;93.80;;;;;;5075504;28;20464;-56
2023/10/17 03:44:15;;;;;;;5.53;5.00;;;10.10;93.70;;;;;;5075496;28;20467;-56
2023/10/17 03:46:46;;;;;;;8.60;6.33;;;10.00;93.50;;;;;;5075372;28;20425;-56
2023/10/17 03:49:18;;;;;;;6.50;5.50;;;10.00;93.50;;;;;;5075209;28;20424;-56
2023/10/17 03:51:47;;;;;;;6.37;5.20;;;10.00;93.50;;;;;;5074846;28;20982;-56
2023/10/17 03:54:18;;;;;;;6.67;6.03;;;10.00;93.50;;;;;;5075016;28;20484;-56
2023/10/17 03:56:45;;;;;;;6.40;5.27;;;9.90;94.00;;;;;;5075145;28;20460;-56
2023/10/17 03:59:27;;;;;;;7.80;5.83;;;9.90;94.00;;;;;;5074746;28;20954;-56
2023/10/17 04:01:54;;;;;;;5.47;4.77;;;9.90;94.00;;;;;;5074877;28;20473;-56
2023/10/17 04:04:33;;;;;;;8.23;6.10;;;9.90;94.10;;;;;;5074851;28;20445;-56
2023/10/17 04:07:01;;;;;;;5.90;5.30;;;9.90;94.20;;;;;;5074352;28;20810;-56
2023/10/17 04:09:31;;;;;;;5.47;4.97;;;9.90;94.40;;;;;;5074422;28;20551;-56
2023/10/17 04:12:02;;;;;;;5.53;5.00;;;9.90;94.50;;;;;;5074664;28;20465;-56
2023/10/17 04:14:33;;;;;;;8.03;5.40;;;9.90;94.60;;;;;;5074644;28;20940;-56
2023/10/17 04:17:02;;;;;;;5.20;4.53;;;9.90;94.70;;;;;;5074812;28;20442;-56
2023/10/17 04:19:32;;;;;;;6.00;5.17;;;9.90;94.90;;;;;;5074591;28;20514;-56
2023/10/17 04:22:07;;;;;;;5.70;5.20;;;9.90;94.90;;;;;;5074511;28;20428;-56
2023/10/17 04:24:35;;;;;;;7.70;5.13;;;9.80;94.80;;;;;;5075030;28;20485;-56
2023/10/17 04:27:19;;;;;;;5.70;5.20;;;9.90;94.90;;;;;;5075229;28;20460;-56
2023/10/17 04:29:50;;;;;;;8.43;5.67;;;9.90;94.90;;;;;;5074298;28;20512;-56
2023/10/17 04:32:19;;;;;;;5.00;4.50;;;9.90;95.00;;;;;;5074441;28;20429;-56
2023/10/17 04:34:48;;;;;;;6.23;5.60;;;9.80;95.00;;;;;;5074175;28;20481;-56
2023/10/17 04:37:17;;;;;;;5.77;4.03;;;9.90;95.00;;;;;;5074327;28;20448;-56
2023/10/17 04:39:49;;;;;;;6.07;5.30;;;9.90;95.00;;;;;;5073800;28;20476;-56
2023/10/17 04:42:25;;;;;;;4.43;4.03;;;9.90;95.10;;;;;;5074111;28;20795;-56
2023/10/17 04:44:52;;;;;;;5.43;4.93;;;9.90;95.10;;;;;;5074023;28;20460;-56
2023/10/17 04:47:30;;;;;;;8.17;4.43;;;9.90;95.20;;;;;;5074073;28;20440;-56
2023/10/17 04:49:58;;;;;;;7.60;4.50;;;9.90;95.20;;;;;;5073672;28;20464;-56
2023/10/17 04:52:30;;;;;;;8.87;4.90;;;9.90;95.20;;;;;;5073944;28;20449;-56
2023/10/17 04:55:11;;;;;;;7.10;4.07;;;9.90;95.20;;;;;;5073826;28;20572;-56
2023/10/17 04:57:56;;;;;;;5.93;5.33;;;9.90;95.20;;;;;;5073833;28;20429;-56
2023/10/17 05:00:43;;;;;;;7.50;5.00;;;9.90;95.20;;;;;;5073786;28;20549;-55
2023/10/17 05:03:14;;;;;;;11.53;5.00;;;9.90;95.10;;;;;;5074010;28;20429;-56
2023/10/17 05:06:00;;;;;;;7.13;5.30;;;9.90;95.10;;;;;;5073767;28;20460;-56
2023/10/17 05:08:32;;;;;;;6.43;4.17;;;9.90;95.10;;;;;;5073320;28;20800;-56
2023/10/17 06:16:58;;;;;;;8.60;5.57;;;9.70;95.60;;;;;;5072715;28;20405;-56
2023/10/17 06:19:25;;;;;;;6.07;5.33;;;9.70;95.70;;;;;;5072627;28;20935;-56
2023/10/17 06:26:04;;;;;;;6.20;5.10;;;9.80;95.60;;;;;;5072965;28;20411;-56
2023/10/17 06:28:20;;;;;;;5.67;4.83;;;9.80;95.70;;;;;;5072369;28;20441;-56
2023/10/17 06:30:48;;;;;;;5.27;4.77;;;9.80;95.80;;;;;;5076543;28;20525;-56
2023/10/17 06:33:17;;;;;;;8.60;5.77;;;9.80;95.80;;;;;;5076599;28;20487;-56
2023/10/17 06:35:52;;;;;;;7.23;5.17;;;9.80;95.90;;;;;;5076442;28;20487;-56
2023/10/17 06:38:19;;;;;;;8.77;6.30;;;9.90;96.00;;;;;;5076199;28;20910;-56
2023/10/17 06:40:46;;;;;;;6.60;5.87;;;9.90;95.90;;;;;;5076421;28;20472;-56
2023/10/17 06:43:15;;;;;;;5.63;5.10;;;9.90;95.90;;;;;;5076390;28;20448;-56
2023/10/17 06:45:52;;;;;;;6.10;5.17;;;9.90;95.90;;;;;;5076261;28;20451;-56
2023/10/17 06:48:19;;;;;;;5.90;5.10;;;10.00;95.40;;;;;;5076923;28;20860;-56
2023/10/17 06:53:34;;;;;;;9.83;5.90;;;10.00;95.40;;;;;;5075898;28;20508;-56
2023/10/17 06:56:09;;;;;;;5.90;5.30;;;10.10;95.40;;;;;;5075904;28;20886;-56
2023/10/17 06:58:38;;;;;;;5.23;4.43;;;10.10;95.30;;;;;;5076200;28;20457;-56
2023/10/17 07:01:05;;;;;;;5.43;4.60;;;10.10;95.20;;;;;;5076113;28;20537;-56
2023/10/17 07:03:34;;;;;;;7.67;5.07;;;10.20;95.10;;;;;;5076031;28;20459;-56
2023/10/17 07:06:11;;;;;;;6.57;4.33;;;10.20;95.10;;;;;;5075698;28;20938;-56
2023/10/17 07:08:37;;;;;;;8.10;5.87;;;10.30;95.10;;;;;;5075572;28;20448;-56
2023/10/17 07:11:09;;;;;;;5.33;4.83;;;10.30;95.20;;;;;;5075601;28;20970;-56
2023/10/17 07:14:22;;;;;;;6.10;5.00;;;10.40;95.10;;;;;;5075964;28;20429;-56
2023/10/17 07:16:57;;;;;;;6.50;5.50;;;10.40;95.40;;;;;;5075589;28;20449;-56
2023/10/17 07:22:11;;;;;;;6.33;5.70;;;10.50;94.90;;;;;;5075614;28;20447;-56
2023/10/17 07:24:42;;;;;;;6.90;5.17;;;10.60;94.80;;;;;;5075301;28;20931;-56
2023/10/17 07:27:18;;;;;;;7.30;5.00;;;10.60;94.70;;;;;;5075405;28;20899;-56
2023/10/17 07:29:58;;;;;;;6.70;6.03;;;10.70;94.70;;;;;;5075643;28;20497;-56
2023/10/17 07:32:26;;;;;;;6.47;5.13;;;10.70;94.60;;;;;;5075685;28;20433;-56
2023/10/17 07:34:58;;;;;;;5.30;4.80;;;10.80;94.60;;;;;;5075397;28;20484;-56
2023/10/17 07:37:25;;;;;;;6.10;5.27;;;10.80;94.60;;;;;;5075462;28;20430;-56
2023/10/17 07:40:16;;;;;;;9.27;5.10;;;10.90;94.50;;;;;;5074891;28;20448;-56
2023/10/17 07:42:45;;;;;;;6.43;4.83;;;11.00;94.40;;;;;;5075378;28;20425;-56
2023/10/17 07:45:17;;;;;;;5.50;5.00;;;11.00;94.30;;;;;;5075267;28;20527;-56
2023/10/17 07:47:50;;;;;;;6.03;4.80;;;11.00;94.20;;;;;;5075284;28;20436;-56
2023/10/17 07:50:18;;;;;;;6.17;5.53;;;11.10;94.20;;;;;;5075243;28;20907;-56
2023/10/17 07:52:50;;;;;;;3.93;3.53;;;11.20;94.20;;;;;;5074862;28;20963;-56
2023/10/17 07:55:22;;;;;;;7.63;4.33;;;11.20;94.20;;;;;;5075030;28;20472;-56
2023/10/17 07:57:52;;;;;;;5.73;3.90;;;11.30;94.20;;;;;;5074724;28;20457;-56
2023/10/17 08:00:26;;;;;;;5.87;4.30;;;11.30;94.00;;;;;;5074950;28;20461;-56
2023/10/17 08:02:54;;;;;;;4.23;3.80;;;11.40;93.90;;;;;;5075021;28;20425;-56
2023/10/17 08:05:23;;;;;;;7.10;4.50;;;11.40;93.80;;;;;;5074872;28;20469;-56
2023/10/17 08:08:01;;;;;;;5.07;3.67;;;11.50;93.70;;;;;;5074576;28;20464;-56
2023/10/17 08:10:33;;;;;;;6.43;4.43;;;11.50;93.40;;;;;;5074448;28;20529;-56
2023/10/17 08:13:00;;;;;;;4.37;3.97;;;11.60;93.30;;;;;;5074901;28;20524;-56
2023/10/17 08:15:36;;;;;;;7.97;4.00;;;11.60;93.20;;;;;;5074238;28;21014;-56
2023/10/17 08:18:13;;;;;;;4.30;3.90;;;11.60;93.10;;;;;;5074681;28;20864;-56
2023/10/17 08:20:54;;;;;;;6.50;4.30;;;11.70;93.20;;;;;;5074547;28;20460;-56
2023/10/17 08:23:20;;;;;;;5.37;3.40;;;11.80;93.00;;;;;;5074264;28;20782;-56
2023/10/17 08:25:53;;;;;;;4.27;3.43;;;11.80;92.90;;;;;;5074512;28;20453;-56
2023/10/17 08:28:31;;;;;;;4.50;3.80;;;11.90;92.80;;;;;;5074451;28;20482;-56
2023/10/17 08:31:17;;;;;;;6.23;4.07;;;12.00;92.70;;;;;;5074329;28;20468;-56
2023/10/17 08:33:53;;;;;;;4.77;3.67;;;12.10;92.70;;;;;;5074362;28;20429;-56
2023/10/17 08:36:23;;;;;;;6.50;3.53;;;12.10;92.50;;;;;;5074297;28;20526;-56
2023/10/17 08:38:50;;;;;;;5.67;3.73;;;12.20;92.40;;;;;;5074221;28;20502;-56
2023/10/17 08:41:22;;;;;;;4.80;3.80;;;12.30;92.30;;;;;;5074100;28;20479;-56
2023/10/17 08:43:49;;;;;;;5.57;3.30;;;12.40;92.10;;;;;;5074080;28;20547;-56
2023/10/17 08:46:17;;;;;;;8.13;3.27;;;12.50;91.80;;;;;;5074104;28;20433;-56
2023/10/17 08:48:44;;;;;;;4.30;3.50;;;12.60;91.60;;;;;;5073709;28;20958;-57
2023/10/17 08:51:12;;;;;;;3.30;3.00;;;12.70;91.60;;;;;;5073893;28;20568;-56
2023/10/17 08:53:39;;;;;;;5.80;3.60;;;12.80;91.30;;;;;;5073612;28;20960;-56
2023/10/17 08:56:08;;;;;;;3.23;2.90;;;12.90;91.00;;;;;;5073895;28;20480;-57
2023/10/17 08:58:36;;;;;;;5.80;2.73;;;13.00;90.70;;;;;;5073622;28;20527;-57
2023/10/17 09:01:10;;;;;;;2.83;2.60;;;13.10;90.60;;;;;;5073441;28;20476;-57
2023/10/17 09:03:43;;;;;;;4.30;2.80;;;13.10;90.30;;;;;;5073841;28;20429;-57
2023/10/17 09:08:57;;;;;;;4.50;3.47;;;13.10;89.80;;;;;;5073695;28;20514;-57
2023/10/17 09:11:31;;;;;;;6.47;2.97;;;13.10;89.70;;;;;;5073735;28;20465;-57
2023/10/17 09:14:16;;;;;;;5.20;3.03;;;13.00;89.40;;;;;;5073810;28;20421;-56
2023/10/17 09:16:50;;;;;;;3.63;3.10;;;12.90;89.60;;;;;;5073297;28;21063;-56
2023/10/17 09:19:21;;;;;;;4.40;3.20;;;12.80;89.70;;;;;;5074129;28;20433;-56
2023/10/17 09:21:49;;;;;;;4.00;3.30;;;12.80;90.10;;;;;;5073561;28;20518;-56
2023/10/17 09:24:36;;;;;;;4.93;2.70;;;12.80;90.00;;;;;;5073217;28;20943;-57
2023/10/17 09:27:12;;;;;;;6.67;3.00;;;12.70;90.10;;;;;;5073554;28;20428;-57
2023/10/17 09:29:47;;;;;;;3.20;3.00;;;12.80;90.40;;;;;;5073438;28;20507;-56
2023/10/17 09:32:32;;;;;;;3.50;3.00;;;12.80;90.40;;;;;;5073456;28;20431;-57
2023/10/17 09:35:10;;;;;;;4.03;2.83;;;12.90;90.80;;;;;;5073324;28;20500;-57
2023/10/17 09:37:38;;;;;;;6.67;3.40;;;12.90;90.30;;;;;;5073445;28;20429;-57
2023/10/17 09:40:11;;;;;;;5.20;2.67;;;12.90;90.00;;;;;;5073284;28;20492;-57
2023/10/17 09:42:40;;;;;;;3.43;3.13;;;13.00;90.10;;;;;;5073305;28;20429;-57
2023/10/17 09:45:09;;;;;;;3.90;2.90;;;13.00;90.10;;;;;;5073191;28;20445;-57
2023/10/17 09:47:41;;;;;;;3.30;2.70;;;13.20;90.20;;;;;;5073810;28;20444;-57
2023/10/17 09:50:16;;;;;;;2.43;2.23;;;13.30;90.00;;;;;;5073161;28;20475;-57
2023/10/17 09:52:45;;;;;;;3.77;2.80;;;13.50;90.20;;;;;;5073752;28;20428;-57
2023/10/17 09:55:15;;;;;;;4.33;2.87;;;13.60;90.00;;;;;;5073094;28;20484;-57
2023/10/17 09:57:44;;;;;;;4.50;2.50;;;13.80;87.70;;;;;;5073562;28;20456;-57
2023/10/17 10:00:18;;;;;;;2.73;2.50;;;14.00;86.20;;;;;;5073263;28;20464;-57
2023/10/17 10:02:47;;;;;;;4.00;1.97;;;14.20;85.00;;;;;;5073400;28;20479;-57
2023/10/17 10:05:24;;;;;;;6.03;2.40;;;14.50;84.70;;;;;;5076563;28;20448;-57
2023/10/17 10:07:50;;;;;;;3.10;2.80;;;14.80;81.00;;;;;;5077288;28;20433;-57
2023/10/17 10:10:52;;;;;;;4.00;1.87;;;15.30;80.60;;;;;;5076642;28;20483;-58
2023/10/17 10:13:20;;;;;;;5.40;2.23;;;15.90;77.60;;;;;;5077029;28;20444;-57
2023/10/17 10:15:51;;;;;;;6.13;2.33;;;16.50;72.50;;;;;;5076962;28;20480;-57
2023/10/17 10:18:18;;;;;;;3.63;2.07;;;17.00;68.80;;;;;;5076649;28;20447;-57
2023/10/17 10:20:56;;;;;;;2.50;2.30;;;17.60;65.00;;;;;;5076531;28;20986;-57
2023/10/17 10:23:34;;;;;;;2.70;1.93;;;18.10;63.30;;;;;;5076873;28;20798;-58
2023/10/17 10:26:15;;;;;;;4.10;1.80;;;18.70;61.00;;;;;;5076889;28;20563;-58
2023/10/17 10:28:42;;;;;;;2.83;1.80;;;19.20;57.30;;;;;;5076493;28;20437;-58
2023/10/17 10:31:39;;;;;;;3.37;3.03;;;19.70;56.50;;;;;;5076613;28;20470;-58
2023/10/17 10:34:07;;;;;;;1.93;1.47;;;20.30;54.10;;;;;;5076665;28;20847;-58
2023/10/17 10:36:36;;;;;;;3.73;1.90;;;20.80;52.70;;;;;;5076527;28;20484;-58
2023/10/17 10:39:18;;;;;;;1.60;1.47;;;21.20;49.20;;;;;;5076284;28;20858;-58
2023/10/17 10:42:01;;;;;;;3.60;1.77;;;21.70;47.40;;;;;;5076429;28;20468;-58
2023/10/17 10:44:28;;;;;;;1.73;1.20;;;22.00;45.80;;;;;;5076448;28;20474;-58
2023/10/17 10:46:55;;;;;;;1.43;1.33;;;22.30;45.10;;;;;;5076340;28;20443;-58
2023/10/17 10:49:28;;;;;;;3.83;1.37;;;22.50;44.90;;;;;;5076022;28;20980;-58
2023/10/17 10:51:58;;;;;;;1.70;1.10;;;22.70;43.70;;;;;;5076202;28;20496;-58
2023/10/17 10:54:27;;;;;;;3.43;1.47;;;23.10;42.50;;;;;;5076222;28;20455;-58
2023/10/17 10:56:54;;;;;;;1.73;1.20;;;23.50;41.50;;;;;;5076098;28;20537;-58
2023/10/17 10:59:22;;;;;;;3.73;1.63;;;23.80;40.40;;;;;;5076931;28;20459;-58
2023/10/17 11:01:49;;;;;;;2.60;1.47;;;24.10;39.40;;;;;;5075652;28;20952;-58
2023/10/17 11:04:16;;;;;;;2.70;0.97;;;24.50;39.70;;;;;;5076135;28;20451;-58
2023/10/17 11:06:43;;;;;;;4.50;1.33;;;24.80;38.50;;;;;;5076038;28;20444;-58
2023/10/17 11:09:16;;;;;;;1.20;0.90;;;25.10;37.80;;;;;;5075861;28;20457;-58
2023/10/17 11:11:45;;;;;;;2.77;1.40;;;25.40;37.50;;;;;;5075858;28;20471;-58
2023/10/17 11:14:16;;;;;;;2.17;1.30;;;25.90;36.40;;;;;;5075931;28;20453;-58
2023/10/17 11:16:43;;;;;;;2.13;1.30;;;26.30;35.60;;;;;;5075617;28;20465;-58
2023/10/17 11:19:19;;;;;;;1.87;1.10;;;26.60;34.40;;;;;;5075778;28;20455;-58
2023/10/17 11:21:51;;;;;;;3.07;1.30;;;26.90;33.40;;;;;;5075706;28;20464;-58
2023/10/17 11:24:23;;;;;;;1.83;0.63;;;27.20;32.70;;;;;;5075763;28;20437;-58
2023/10/17 11:26:51;;;;;;;2.50;1.17;;;27.50;32.80;;;;;;5076450;28;20453;-58
2023/10/17 11:29:20;;;;;;;2.90;1.17;;;27.80;31.80;;;;;;5075623;28;20448;-58
2023/10/17 11:31:47;;;;;;;2.80;1.30;;;28.00;31.30;;;;;;5075472;28;20476;-58
2023/10/17 11:34:14;;;;;;;1.37;1.27;;;28.30;30.50;;;;;;5075545;28;20441;-58
2023/10/17 11:36:46;;;;;;;2.00;1.10;;;28.50;30.00;;;;;;5075381;28;20487;-58
2023/10/17 11:39:15;;;;;;;2.60;1.30;;;28.90;29.80;;;;;;5075451;28;20440;-58
2023/10/17 11:41:48;;;;;;;1.00;0.77;;;29.10;28.60;;;;;;5075274;28;20502;-58
2023/10/17 11:44:15;;;;;;;1.40;1.00;;;29.40;29.00;;;;;;5075468;28;20433;-58
2023/10/17 11:46:55;;;;;;;3.67;1.20;;;29.50;28.60;;;;;;5075272;28;20444;-58
2023/10/17 11:49:26;;;;;;;2.40;1.00;;;29.70;28.60;;;;;;5075262;28;20439;-57
2023/10/17 11:51:59;;;;;;;3.23;1.23;;;29.90;27.60;;;;;;5075072;28;20464;-56
2023/10/17 11:54:26;;;;;;;1.73;1.30;;;30.10;28.10;;;;;;5075253;28;20435;-57
2023/10/17 11:56:55;;;;;;;2.27;1.30;;;30.30;27.20;;;;;;5075058;28;20558;-56
2023/10/17 11:59:22;;;;;;;2.67;1.00;;;30.60;27.40;;;;;;5075494;28;20472;-56
2023/10/17 12:01:52;;;;;;;1.07;0.90;;;30.80;27.40;;;;;;5074855;28;20464;-56
2023/10/17 12:04:19;;;;;;;2.80;1.57;;;31.20;27.20;;;;;;5074937;28;20471;-56
2023/10/17 12:06:47;;;;;;;2.73;1.10;;;31.40;25.90;;;;;;5074579;28;20446;-56
2023/10/17 12:09:22;;;;;;;1.13;0.80;;;31.50;25.30;;;;;;5074573;28;20953;-57
2023/10/17 12:11:51;;;;;;;0.70;0.70;;;31.50;25.10;;;;;;5074796;28;20472;-56
2023/10/17 12:14:22;;;;;;;0.80;0.80;;;31.60;25.90;;;;;;5074426;28;20835;-56
2023/10/17 12:16:49;;;;;;;1.30;1.17;;;31.80;25.80;;;;;;5074733;28;20464;-57
2023/10/17 12:19:17;;;;;;;1.13;1.03;;;31.90;25.80;;;;;;5074772;28;20444;-57
2023/10/17 12:21:47;;;;;;;1.23;1.00;;;32.20;25.30;;;;;;5074461;28;20547;-56
2023/10/17 12:24:16;;;;;;;1.70;1.10;;;32.20;24.40;;;;;;5074536;28;20483;-56
2023/10/17 12:26:45;;;;;;;2.03;1.27;;;32.30;24.80;;;;;;5074019;28;20441;-56
2023/10/17 12:29:12;;;;;;;1.43;0.90;;;32.60;24.50;;;;;;5074499;28;20447;-56
2023/10/17 12:31:40;;;;;;;1.50;1.40;;;32.70;24.60;;;;;;5074320;28;20475;-56
2023/10/17 12:34:07;;;;;;;1.80;0.93;;;32.70;24.30;;;;;;5074375;28;20444;-56
2023/10/17 12:36:35;;;;;;;1.20;1.10;;;32.80;24.50;;;;;;5074284;28;20472;-56
2023/10/17 12:39:02;;;;;;;1.73;1.17;;;33.00;24.10;;;;;;5074323;28;20472;-56
2023/10/17 12:41:29;;;;;;;2.37;1.23;;;33.00;23.80;;;;;;5074192;28;20463;-56
2023/10/17 12:43:55;;;;;;;1.40;1.30;;;33.00;23.10;;;;;;5074249;28;20443;-56
2023/10/17 12:46:22;;;;;;;1.50;1.10;;;33.00;23.40;;;;;;5074165;28;20466;-56
2023/10/17 12:48:50;;;;;;;2.50;1.20;;;33.00;24.00;;;;;;5074045;28;20447;-56
2023/10/17 12:51:17;;;;;;;2.23;1.10;;;33.20;23.10;;;;;;5073948;28;20468;-57
2023/10/17 12:53:44;;;;;;;2.10;1.20;;;33.20;23.00;;;;;;5073740;28;20443;-56
2023/10/17 12:56:11;;;;;;;2.00;0.83;;;33.20;23.30;;;;;;5073861;28;20486;-57
2023/10/17 12:58:38;;;;;;;1.17;1.03;;;33.30;23.40;;;;;;5073945;28;20439;-57
2023/10/17 13:01:05;;;;;;;1.63;1.50;;;33.40;23.60;;;;;;5073920;28;20464;-57
2023/10/17 13:03:33;;;;;;;2.80;1.30;;;33.40;23.10;;;;;;5074033;28;20444;-57
2023/10/17 13:06:01;;;;;;;2.60;1.30;;;33.40;23.40;;;;;;5073830;28;20547;-56
2023/10/17 13:08:28;;;;;;;1.30;0.80;;;33.50;23.10;;;;;;5073726;28;20439;-57
2023/10/17 13:10:55;;;;;;;1.60;1.07;;;33.50;22.50;;;;;;5073829;28;20460;-56
2023/10/17 13:13:22;;;;;;;1.90;1.20;;;33.50;23.00;;;;;;5073394;28;20443;-56
2023/10/17 13:15:48;;;;;;;3.27;1.30;;;33.60;23.00;;;;;;5073653;28;20447;-56
2023/10/17 13:18:16;;;;;;;2.63;1.10;;;33.80;22.70;;;;;;5073378;28;20451;-56
2023/10/17 13:20:48;;;;;;;1.47;1.20;;;33.80;22.60;;;;;;5073547;28;20244;-56
2023/10/17 13:23:16;;;;;;;2.20;1.23;;;33.90;22.50;;;;;;5073596;28;20519;-56
2023/10/17 13:25:44;;;;;;;1.00;0.90;;;34.00;22.40;;;;;;5073597;28;20471;-56
2023/10/17 13:28:11;;;;;;;1.47;1.20;;;34.10;22.90;;;;;;5073561;28;20271;-56
2023/10/17 13:30:38;;;;;;;1.47;0.90;;;34.20;22.40;;;;;;5073494;28;20225;-57
2023/10/17 13:33:06;;;;;;;1.60;1.20;;;34.10;22.40;;;;;;5073189;28;20675;-56
2023/10/17 13:35:37;;;;;;;1.77;1.10;;;34.00;22.60;;;;;;5073403;28;20450;-56
2023/10/17 13:38:04;;;;;;;2.37;1.07;;;33.90;21.90;;;;;;5072746;28;20464;-56
2023/10/17 13:40:33;;;;;;;2.20;0.90;;;34.00;22.30;;;;;;5073090;28;20256;-56
2023/10/17 13:43:01;;;;;;;1.93;0.90;;;34.10;22.00;;;;;;5073847;28;20296;-56
2023/10/17 13:45:28;;;;;;;2.00;0.77;;;34.10;22.00;;;;;;5073302;28;20531;-57
2023/10/17 13:47:56;;;;;;;3.80;1.20;;;34.10;21.60;;;;;;5073834;28;20538;-57
2023/10/17 13:50:23;;;;;;;1.30;1.13;;;34.10;22.30;;;;;;5073209;28;20221;-56
2023/10/17 13:52:52;;;;;;;2.10;0.77;;;34.00;22.40;;;;;;5073270;28;20455;-56
2023/10/17 13:55:25;;;;;;;2.00;1.13;;;33.90;22.60;;;;;;5073205;28;20205;-57
2023/10/17 13:57:55;;;;;;;1.03;0.93;;;33.80;22.50;;;;;;5072820;28;20671;-57
2023/10/17 14:00:23;;;;;;;1.50;1.10;;;33.60;22.50;;;;;;5073090;28;20459;-56
2023/10/17 14:02:50;;;;;;;1.93;0.90;;;33.50;22.50;;;;;;5072901;28;20509;-57
2023/10/17 14:05:18;;;;;;;1.47;0.93;;;33.20;22.40;;;;;;5073130;28;20443;-56
2023/10/17 14:07:45;;;;;;;2.73;1.40;;;32.80;23.00;;;;;;5073105;28;20808;-56
2023/10/17 14:10:12;;;;;;;1.30;0.80;;;32.40;23.40;;;;;;5072630;28;20480;-56
2023/10/17 14:12:41;;;;;;;1.73;0.93;;;31.90;24.40;;;;;;5073841;28;20836;-56
2023/10/17 14:15:10;;;;;;;1.23;0.90;;;31.30;24.20;;;;;;5073024;28;20444;-56
2023/10/17 14:17:44;;;;;;;0.97;0.90;;;30.60;25.00;;;;;;5072915;28;20494;-56
2023/10/17 14:20:16;;;;;;;0.93;0.77;;;30.10;25.60;;;;;;5072948;28;20482;-56
2023/10/17 14:22:58;;;;;;;1.10;1.00;;;29.80;26.50;;;;;;5073093;28;20494;-56
2023/10/17 14:28:08;;;;;;;1.40;0.93;;;29.70;26.50;;;;;;5072616;28;20424;-56
2023/10/17 14:30:39;;;;;;;0.97;0.97;;;29.70;26.20;;;;;;5073058;28;20474;-56